Terminal Aerodrome Forecast
Issued by NWS

Home | Current Version | Previous Version | Graphics & Text | Print | Product List | Glossary On
Versions: 1 2 3 4 5 6 7 8 9 10 11 12 13 14 15 16 17 18 19 20 21 22 23 24 25 26 27 28 29 30 31 32 33 34 35 36 37 38 39
000
FTUS43 KLOT 261100
TAFMDW
TAF
KMDW 261140Z 2612/2712 13003KT 5SM BR BKN014
     FM261400 11006KT P6SM BKN018
     FM261900 07006KT P6SM SCT020 OVC150
     FM270200 02005KT P6SM SCT050 BKN080
     FM270700 31008KT P6SM VCSH BKN025 OVC040=

USA.gov is the U.S. government's official web portal to all federal, state and local government web resources and services.